Terminal Aerodrome Forecast
Issued by NWS

Home | Current Version | Previous Version | Text Only | Print | Product List | Glossary Off
Versions: 1 2 3 4 5 6 7 8 9 10 11 12 13 14 15 16 17 18

000
FTUS43 KICT 052320
TAFRSL
TAF
KRSL 052320Z 0600/0624 18018G28KT P6SM BKN250
     FM060200 18017KT P6SM BKN250
     FM061200 22012KT P6SM BKN120
     FM061700 27012KT P6SM VCTS BKN060CB
     FM061900 35012G24KT P6SM VCTS BKN060CB=

USA.gov is the U.S. government's official web portal to all federal, state and local government web resources and services.